createdAt,value
2022-10-13T00:00:25.830Z,1017.87
2022-10-13T00:01:28.086Z,1017.86
2022-10-13T00:02:26.378Z,1017.82
2022-10-13T00:03:26.715Z,1017.85
2022-10-13T00:04:27.013Z,1017.83
2022-10-13T00:05:27.295Z,1017.86
2022-10-13T00:06:29.477Z,1017.83
2022-10-13T00:07:29.665Z,1017.83
2022-10-13T00:08:29.092Z,1017.84
2022-10-13T00:09:30.366Z,1017.82
2022-10-13T00:10:28.734Z,1017.77
2022-10-13T00:11:30.910Z,1017.75
2022-10-13T00:12:29.283Z,1017.77
2022-10-13T00:13:32.939Z,1017.75
2022-10-13T00:14:29.828Z,1017.75
2022-10-13T00:15:30.123Z,1017.74
2022-10-13T00:16:30.423Z,1017.77
2022-10-13T00:17:30.711Z,1017.73
2022-10-13T00:18:31.104Z,1017.74
2022-10-13T00:19:33.231Z,1017.74
2022-10-13T00:20:31.479Z,1017.73
2022-10-13T00:21:33.668Z,1017.73
2022-10-13T00:22:32.040Z,1017.68
2022-10-13T00:23:32.358Z,1017.63
2022-10-13T00:24:34.544Z,1017.62
2022-10-13T00:25:32.906Z,1017.61
2022-10-13T00:26:33.340Z,1017.59
2022-10-13T00:27:33.469Z,1017.65
2022-10-13T00:28:34.775Z,1017.67
2022-10-13T00:29:33.981Z,1017.69
2022-10-13T00:30:34.306Z,1017.70
2022-10-13T00:31:35.593Z,1017.70
2022-10-13T00:32:36.774Z,1017.70
2022-10-13T00:33:36.166Z,1017.68
2022-10-13T00:34:35.396Z,1017.67
2022-10-13T00:35:37.583Z,1017.70
2022-10-13T00:36:35.957Z,1017.70
2022-10-13T00:37:36.242Z,1017.69
2022-10-13T00:38:36.535Z,1017.66
2022-10-13T00:39:36.825Z,1017.66
2022-10-13T00:40:39.042Z,1017.66
2022-10-13T00:41:39.202Z,1017.64
2022-10-13T00:42:40.347Z,1017.66
2022-10-13T00:43:37.973Z,1017.65
2022-10-13T00:44:41.129Z,1017.66
2022-10-13T00:45:41.839Z,1017.64
2022-10-13T00:46:38.866Z,1017.65
2022-10-13T00:47:39.145Z,1017.64
2022-10-13T00:48:39.439Z,1017.60
2022-10-13T00:49:39.865Z,1017.54
2022-10-13T00:50:41.960Z,1017.54
2022-10-13T00:51:40.325Z,1017.58
2022-10-13T00:52:42.507Z,1017.56
2022-10-13T00:53:43.649Z,1017.54
2022-10-13T00:54:41.161Z,1017.56
2022-10-13T00:55:44.292Z,1017.53
2022-10-13T00:56:41.696Z,1017.52
2022-10-13T00:57:44.837Z,1017.48
2022-10-13T00:58:43.236Z,1017.50
2022-10-13T00:59:44.577Z,1017.49
2022-10-13T01:00:43.975Z,1017.49
2022-10-13T01:01:46.660Z,1017.49
2022-10-13T01:02:45.347Z,1017.49
2022-10-13T01:03:44.789Z,1017.53
2022-10-13T01:04:46.031Z,1017.52
2022-10-13T01:05:45.380Z,1017.53
2022-10-13T01:06:46.610Z,1017.48
2022-10-13T01:07:44.971Z,1017.49
2022-10-13T01:08:45.265Z,1017.47
2022-10-13T01:09:45.558Z,1017.46
2022-10-13T01:10:46.693Z,1017.48
2022-10-13T01:11:47.070Z,1017.51
2022-10-13T01:12:46.423Z,1017.50
2022-10-13T01:13:46.699Z,1017.50
2022-10-13T01:14:47.073Z,1017.43
2022-10-13T01:15:49.731Z,1017.42
2022-10-13T01:16:47.492Z,1017.40
2022-10-13T01:17:47.780Z,1017.41
2022-10-13T01:18:48.079Z,1017.42
2022-10-13T01:19:50.262Z,1017.37
2022-10-13T01:20:50.544Z,1017.42
2022-10-13T01:21:48.905Z,1017.42
2022-10-13T01:22:51.062Z,1017.38
2022-10-13T01:23:49.428Z,1017.39
2022-10-13T01:24:49.720Z,1017.39
2022-10-13T01:25:53.455Z,1017.38
2022-10-13T01:26:50.371Z,1017.33
2022-10-13T01:27:50.685Z,1017.37
2022-10-13T01:28:51.000Z,1017.36
2022-10-13T01:29:51.280Z,1017.35
2022-10-13T01:30:54.956Z,1017.32
2022-10-13T01:31:53.688Z,1017.27
2022-10-13T01:32:53.871Z,1017.23
2022-10-13T01:33:53.042Z,1017.21
2022-10-13T01:34:54.724Z,1017.22
2022-10-13T01:35:54.921Z,1017.20
2022-10-13T01:36:55.072Z,1017.22
2022-10-13T01:37:55.259Z,1017.23
2022-10-13T01:38:55.946Z,1017.23
2022-10-13T01:39:54.529Z,1017.18
2022-10-13T01:40:57.218Z,1017.22
2022-10-13T01:41:56.025Z,1017.14
2022-10-13T01:42:57.145Z,1017.15
2022-10-13T01:43:55.498Z,1017.10
2022-10-13T01:44:57.691Z,1017.07
2022-10-13T01:45:58.835Z,1017.07
2022-10-13T01:46:58.066Z,1017.08
2022-10-13T01:47:56.685Z,1017.05
2022-10-13T01:48:56.973Z,1017.05
2022-10-13T01:49:57.261Z,1017.03
2022-10-13T01:51:00.255Z,1016.99
2022-10-13T01:51:59.447Z,1016.98
2022-10-13T01:52:58.176Z,1016.94
2022-10-13T01:53:58.636Z,1016.91
2022-10-13T01:54:58.767Z,1016.93
2022-10-13T01:56:00.053Z,1016.93
2022-10-13T01:57:01.290Z,1016.93
2022-10-13T01:57:59.667Z,1016.90
2022-10-13T01:58:59.957Z,1016.91
2022-10-13T02:00:00.248Z,1016.91
2022-10-13T02:01:01.431Z,1016.87
2022-10-13T02:02:03.795Z,1016.86
2022-10-13T02:03:03.025Z,1016.87
2022-10-13T02:04:01.384Z,1016.84
2022-10-13T02:05:01.682Z,1016.82
2022-10-13T02:06:01.969Z,1016.85
2022-10-13T02:07:05.631Z,1016.79
2022-10-13T02:08:02.526Z,1016.79
2022-10-13T02:09:02.826Z,1016.74
2022-10-13T02:10:03.122Z,1016.75
2022-10-13T02:11:03.414Z,1016.72
2022-10-13T02:12:07.131Z,1016.74
2022-10-13T02:13:05.859Z,1016.75
2022-10-13T02:14:06.036Z,1016.75
2022-10-13T02:15:04.657Z,1016.70
2022-10-13T02:16:06.805Z,1016.72
2022-10-13T02:17:08.478Z,1016.72
2022-10-13T02:18:05.496Z,1016.72
2022-10-13T02:19:07.679Z,1016.69
2022-10-13T02:20:06.048Z,1016.71
2022-10-13T02:21:06.334Z,1016.75
2022-10-13T02:22:09.508Z,1016.66
2022-10-13T02:23:08.713Z,1016.67
2022-10-13T02:24:07.209Z,1016.65
2022-10-13T02:25:07.507Z,1016.62
2022-10-13T02:26:11.131Z,1016.62
2022-10-13T02:27:08.057Z,1016.59
2022-10-13T02:28:08.346Z,1016.62
2022-10-13T02:29:08.629Z,1016.63
2022-10-13T02:30:08.918Z,1016.64
2022-10-13T02:31:11.124Z,1016.63
2022-10-13T02:32:10.408Z,1016.65
2022-10-13T02:33:11.754Z,1016.60
2022-10-13T02:34:10.001Z,1016.65
2022-10-13T02:35:10.297Z,1016.61
2022-10-13T02:36:10.586Z,1016.62
2022-10-13T02:37:14.241Z,1016.57
2022-10-13T02:38:12.982Z,1016.57
2022-10-13T02:39:11.475Z,1016.52
2022-10-13T02:40:11.761Z,1016.54
2022-10-13T02:41:14.902Z,1016.54
2022-10-13T02:42:15.461Z,1016.53
2022-10-13T02:43:13.443Z,1016.51
2022-10-13T02:44:13.861Z,1016.45
2022-10-13T02:45:14.021Z,1016.46
2022-10-13T02:46:13.692Z,1016.45
2022-10-13T02:47:16.693Z,1016.44
2022-10-13T02:48:15.927Z,1016.45
2022-10-13T02:49:14.302Z,1016.40
2022-10-13T02:50:14.601Z,1016.44
2022-10-13T02:51:14.900Z,1016.44
2022-10-13T02:52:16.224Z,1016.43
2022-10-13T02:53:17.400Z,1016.45
2022-10-13T02:54:17.608Z,1016.37
2022-10-13T02:55:16.087Z,1016.40
2022-10-13T02:56:16.386Z,1016.36
2022-10-13T02:57:17.666Z,1016.36
2022-10-13T02:58:18.891Z,1016.34
2022-10-13T02:59:17.258Z,1016.31
2022-10-13T03:00:17.600Z,1016.29
2022-10-13T03:01:18.762Z,1016.29
2022-10-13T03:02:20.216Z,1016.26
2022-10-13T03:03:18.343Z,1016.23
2022-10-13T03:04:18.648Z,1016.24
2022-10-13T03:05:20.791Z,1016.21
2022-10-13T03:06:19.293Z,1016.24
2022-10-13T03:07:20.472Z,1016.21
2022-10-13T03:08:19.825Z,1016.21
2022-10-13T03:09:20.109Z,1016.22
2022-10-13T03:10:20.408Z,1016.19
2022-10-13T03:11:22.585Z,1016.21
2022-10-13T03:12:23.059Z,1016.17
2022-10-13T03:13:22.951Z,1016.18
2022-10-13T03:14:21.602Z,1016.14
2022-10-13T03:15:23.765Z,1016.12
2022-10-13T03:16:24.135Z,1016.10
2022-10-13T03:17:24.130Z,1016.08
2022-10-13T03:18:24.315Z,1016.08
2022-10-13T03:19:22.946Z,1016.08
2022-10-13T03:20:23.236Z,1016.11
2022-10-13T03:21:23.559Z,1016.13
2022-10-13T03:22:23.818Z,1016.15
2022-10-13T03:23:24.101Z,1016.16
2022-10-13T03:24:26.288Z,1016.19
2022-10-13T03:25:24.651Z,1016.14
2022-10-13T03:26:24.943Z,1016.16
2022-10-13T03:27:25.231Z,1016.15
2022-10-13T03:28:27.468Z,1016.14
2022-10-13T03:29:27.592Z,1016.12
2022-10-13T03:30:26.210Z,1016.15
2022-10-13T03:31:27.494Z,1016.08
2022-10-13T03:32:26.862Z,1016.11
2022-10-13T03:33:27.154Z,1016.10
2022-10-13T03:34:29.342Z,1016.08
2022-10-13T03:35:27.706Z,1016.09
2022-10-13T03:36:28.008Z,1016.06
2022-10-13T03:37:30.188Z,1016.05
2022-10-13T03:38:30.374Z,1016.06
2022-10-13T03:39:30.570Z,1016.09
2022-10-13T03:40:30.768Z,1016.08
2022-10-13T03:41:31.425Z,1016.06
2022-10-13T03:42:29.795Z,1016.03
2022-10-13T03:43:31.974Z,1016.05
2022-10-13T03:44:30.343Z,1016.08
2022-10-13T03:45:32.623Z,1016.04
2022-10-13T03:46:30.884Z,1016.01
2022-10-13T03:47:33.065Z,1016.01
2022-10-13T03:48:33.253Z,1016.01
2022-10-13T03:49:31.744Z,1016.01
2022-10-13T03:50:32.047Z,1015.99
2022-10-13T03:51:33.294Z,1016.02
2022-10-13T03:52:34.528Z,1016.04
2022-10-13T03:53:32.887Z,1016.03
2022-10-13T03:54:33.180Z,1016.01
2022-10-13T03:55:33.476Z,1016.00
2022-10-13T03:56:34.599Z,1016.02
2022-10-13T03:57:35.957Z,1015.97
2022-10-13T03:58:36.117Z,1015.97
2022-10-13T03:59:37.089Z,1015.93
2022-10-13T04:00:34.914Z,1015.85
2022-10-13T04:01:37.301Z,1015.90
2022-10-13T04:02:37.507Z,1015.89
2022-10-13T04:03:37.682Z,1015.85
2022-10-13T04:04:37.870Z,1015.81
2022-10-13T04:05:38.037Z,1015.79
2022-10-13T04:06:36.655Z,1015.77
2022-10-13T04:07:36.937Z,1015.76
2022-10-13T04:08:39.133Z,1015.71
2022-10-13T04:09:39.412Z,1015.74
2022-10-13T04:10:37.793Z,1015.76
2022-10-13T04:11:38.077Z,1015.75
2022-10-13T04:12:38.375Z,1015.72
2022-10-13T04:13:40.543Z,1015.74
2022-10-13T04:14:40.735Z,1015.72
2022-10-13T04:15:40.887Z,1015.78
2022-10-13T04:16:39.503Z,1015.81
2022-10-13T04:17:39.787Z,1015.74
2022-10-13T04:18:44.666Z,1015.75
2022-10-13T04:19:42.148Z,1015.75
2022-10-13T04:20:40.638Z,1015.72
2022-10-13T04:21:40.923Z,1015.71
2022-10-13T04:22:43.093Z,1015.70
2022-10-13T04:23:43.267Z,1015.71
2022-10-13T04:24:43.456Z,1015.66
2022-10-13T04:25:42.074Z,1015.64
2022-10-13T04:26:44.262Z,1015.66
2022-10-13T04:27:42.633Z,1015.64
2022-10-13T04:28:42.969Z,1015.63
2022-10-13T04:29:45.103Z,1015.57
2022-10-13T04:30:47.155Z,1015.54
2022-10-13T04:31:45.830Z,1015.53
2022-10-13T04:32:44.098Z,1015.55
2022-10-13T04:33:46.291Z,1015.52
2022-10-13T04:34:47.441Z,1015.53
2022-10-13T04:35:44.947Z,1015.50
2022-10-13T04:36:48.107Z,1015.52
2022-10-13T04:37:46.551Z,1015.50
2022-10-13T04:38:45.769Z,1015.53
2022-10-13T04:39:47.922Z,1015.54
2022-10-13T04:40:48.112Z,1015.55
2022-10-13T04:41:46.595Z,1015.53
2022-10-13T04:42:46.884Z,1015.55
2022-10-13T04:43:50.539Z,1015.54
2022-10-13T04:44:49.256Z,1015.53
2022-10-13T04:45:49.433Z,1015.50
2022-10-13T04:46:48.041Z,1015.52
2022-10-13T04:47:50.222Z,1015.50
2022-10-13T04:48:51.396Z,1015.51
2022-10-13T04:49:50.630Z,1015.48
2022-10-13T04:50:49.241Z,1015.48
2022-10-13T04:51:50.497Z,1015.45
2022-10-13T04:52:49.845Z,1015.50
2022-10-13T04:53:51.142Z,1015.52
2022-10-13T04:54:52.382Z,1015.44
2022-10-13T04:55:52.533Z,1015.43
2022-10-13T04:56:50.909Z,1015.45
2022-10-13T04:57:53.937Z,1015.46
2022-10-13T04:58:51.557Z,1015.50
2022-10-13T04:59:53.622Z,1015.45
2022-10-13T05:00:54.689Z,1015.41
2022-10-13T05:01:53.189Z,1015.47
2022-10-13T05:02:54.551Z,1015.44
2022-10-13T05:03:53.766Z,1015.49
2022-10-13T05:04:54.182Z,1015.53
2022-10-13T05:05:55.418Z,1015.51
2022-10-13T05:07:18.272Z,1015.45
2022-10-13T05:07:55.109Z,1015.45
2022-10-13T05:08:55.294Z,1015.49
2022-10-13T05:09:54.651Z,1015.41
2022-10-13T05:10:56.837Z,1015.47
2022-10-13T05:11:57.011Z,1015.47
2022-10-13T05:12:57.909Z,1015.51
2022-10-13T05:13:55.769Z,1015.52
2022-10-13T05:14:56.084Z,1015.58
2022-10-13T05:15:56.357Z,1015.53
2022-10-13T05:16:57.549Z,1015.56
2022-10-13T05:17:58.710Z,1015.53
2022-10-13T05:18:58.913Z,1015.47
2022-10-13T05:19:59.086Z,1015.48
2022-10-13T05:20:59.780Z,1015.48
2022-10-13T05:21:59.922Z,1015.47
2022-10-13T05:23:00.118Z,1015.48
2022-10-13T05:23:58.730Z,1015.44
2022-10-13T05:24:59.030Z,1015.48
2022-10-13T05:25:59.346Z,1015.47
2022-10-13T05:27:00.544Z,1015.46
2022-10-13T05:28:01.684Z,1015.45
2022-10-13T05:29:01.911Z,1015.45
2022-10-13T05:30:02.089Z,1015.42
2022-10-13T05:31:02.269Z,1015.49
2022-10-13T05:32:02.988Z,1015.45
2022-10-13T05:33:03.169Z,1015.39
2022-10-13T05:34:03.357Z,1015.37
2022-10-13T05:35:03.510Z,1015.38
2022-10-13T05:36:02.133Z,1015.34
2022-10-13T05:37:05.786Z,1015.30
2022-10-13T05:38:02.690Z,1015.26
2022-10-13T05:39:04.873Z,1015.26
2022-10-13T05:40:03.252Z,1015.29
2022-10-13T05:41:05.471Z,1015.24
2022-10-13T05:42:03.922Z,1015.24
2022-10-13T05:43:04.182Z,1015.25
2022-10-13T05:44:06.295Z,1015.21
2022-10-13T05:45:04.678Z,1015.19
2022-10-13T05:46:06.857Z,1015.24
2022-10-13T05:47:07.704Z,1015.18
2022-10-13T05:48:05.767Z,1015.22
2022-10-13T05:49:09.223Z,1015.31
2022-10-13T05:50:07.949Z,1015.28
2022-10-13T05:51:06.469Z,1015.25
2022-10-13T05:52:07.590Z,1015.22
2022-10-13T05:53:09.062Z,1015.20
2022-10-13T05:54:08.164Z,1015.22
2022-10-13T05:55:09.535Z,1015.33
2022-10-13T05:56:07.926Z,1015.29
2022-10-13T05:57:09.292Z,1015.33
2022-10-13T05:58:10.463Z,1015.31
2022-10-13T05:59:08.861Z,1015.27
2022-10-13T06:00:09.183Z,1015.32
2022-10-13T06:01:09.514Z,1015.31
2022-10-13T06:02:13.677Z,1015.29
2022-10-13T06:03:10.106Z,1015.30
2022-10-13T06:04:10.429Z,1015.29
2022-10-13T06:05:10.749Z,1015.25
2022-10-13T06:06:11.090Z,1015.26
2022-10-13T06:07:14.242Z,1015.28
2022-10-13T06:08:11.647Z,1015.28
2022-10-13T06:09:11.970Z,1015.26
2022-10-13T06:10:12.333Z,1015.27
2022-10-13T06:11:12.533Z,1015.30
2022-10-13T06:12:14.783Z,1015.31
2022-10-13T06:13:13.184Z,1015.31
2022-10-13T06:14:13.508Z,1015.31
2022-10-13T06:15:13.843Z,1015.32
2022-10-13T06:16:14.186Z,1015.32
2022-10-13T06:17:17.346Z,1015.35
2022-10-13T06:18:14.752Z,1015.33
2022-10-13T06:19:15.091Z,1015.32
2022-10-13T06:20:15.411Z,1015.32
2022-10-13T06:21:15.748Z,1015.33
2022-10-13T06:22:19.249Z,1015.32
2022-10-13T06:23:16.317Z,1015.27
2022-10-13T06:24:16.633Z,1015.32
2022-10-13T06:25:16.957Z,1015.26
2022-10-13T06:26:17.384Z,1015.30
2022-10-13T06:27:19.582Z,1015.28
2022-10-13T06:28:17.915Z,1015.30
2022-10-13T06:29:18.104Z,1015.31
2022-10-13T06:30:18.442Z,1015.34
2022-10-13T06:31:18.794Z,1015.32
2022-10-13T06:32:21.329Z,1015.33
2022-10-13T06:33:22.118Z,1015.30
2022-10-13T06:34:19.669Z,1015.29
2022-10-13T06:35:22.829Z,1015.31
2022-10-13T06:36:22.037Z,1015.30
2022-10-13T06:37:26.898Z,1015.25
2022-10-13T06:38:22.810Z,1015.27
2022-10-13T06:39:22.022Z,1015.28
2022-10-13T06:40:22.358Z,1015.23
2022-10-13T06:41:23.587Z,1015.23
2022-10-13T06:42:23.275Z,1015.22
2022-10-13T06:43:26.046Z,1015.21
2022-10-13T06:44:25.666Z,1015.18
2022-10-13T06:45:23.909Z,1015.16
2022-10-13T06:46:25.131Z,1015.18
2022-10-13T06:47:24.558Z,1015.17
2022-10-13T06:48:24.740Z,1015.20
2022-10-13T06:49:26.006Z,1015.16
2022-10-13T06:50:25.861Z,1015.13
2022-10-13T06:51:25.741Z,1015.11
2022-10-13T06:52:28.411Z,1015.08
2022-10-13T06:53:26.309Z,1015.05
2022-10-13T06:54:27.516Z,1015.06
2022-10-13T06:55:26.629Z,1015.07
2022-10-13T06:56:27.991Z,1015.07
2022-10-13T06:57:28.208Z,1015.09
2022-10-13T06:58:28.375Z,1015.11
2022-10-13T06:59:28.566Z,1015.13
2022-10-13T07:00:29.424Z,1015.15
2022-10-13T07:01:29.432Z,1015.13
2022-10-13T07:02:28.772Z,1015.12
2022-10-13T07:03:30.188Z,1015.13
2022-10-13T07:04:30.372Z,1015.12
2022-10-13T07:05:28.912Z,1015.08
2022-10-13T07:06:31.085Z,1015.07
2022-10-13T07:07:29.534Z,1015.08
2022-10-13T07:08:31.719Z,1015.08
2022-10-13T07:09:31.909Z,1015.08
2022-10-13T07:10:32.098Z,1015.17
2022-10-13T07:11:32.265Z,1015.20
2022-10-13T07:12:32.492Z,1015.16
2022-10-13T07:13:36.344Z,1015.11
2022-10-13T07:14:33.351Z,1015.11
2022-10-13T07:15:31.628Z,1015.10
2022-10-13T07:16:31.969Z,1015.07
2022-10-13T07:17:33.221Z,1015.00
2022-10-13T07:18:34.562Z,1014.94
2022-10-13T07:19:32.841Z,1014.94
2022-10-13T07:20:33.175Z,1014.97
2022-10-13T07:21:35.347Z,1014.97
2022-10-13T07:22:34.807Z,1014.96
2022-10-13T07:23:35.992Z,1014.94
2022-10-13T07:24:35.484Z,1014.94
2022-10-13T07:25:36.172Z,1014.93
2022-10-13T07:26:36.870Z,1014.98
2022-10-13T07:27:38.038Z,1015.01
2022-10-13T07:28:38.777Z,1014.96
2022-10-13T07:29:35.943Z,1015.01
2022-10-13T07:30:38.109Z,1014.99
2022-10-13T07:31:37.398Z,1014.97
2022-10-13T07:32:39.590Z,1014.98
2022-10-13T07:33:38.818Z,1015.01
2022-10-13T07:34:37.231Z,1014.96
2022-10-13T07:35:40.885Z,1014.89
2022-10-13T07:36:37.815Z,1014.95
2022-10-13T07:37:40.032Z,1014.96
2022-10-13T07:38:40.185Z,1014.94
2022-10-13T07:39:38.715Z,1014.97
2022-10-13T07:40:39.068Z,1014.95
2022-10-13T07:41:42.208Z,1014.94
2022-10-13T07:42:41.447Z,1014.87
2022-10-13T07:43:39.857Z,1014.91
2022-10-13T07:44:40.187Z,1014.88
2022-10-13T07:45:40.526Z,1014.93
2022-10-13T07:46:44.189Z,1014.85
2022-10-13T07:47:41.135Z,1014.82
2022-10-13T07:48:41.473Z,1014.79
2022-10-13T07:49:41.805Z,1014.82
2022-10-13T07:50:42.157Z,1014.79
2022-10-13T07:51:45.298Z,1014.78
2022-10-13T07:52:42.722Z,1014.80
2022-10-13T07:53:43.060Z,1014.82
2022-10-13T07:54:43.393Z,1014.79
2022-10-13T07:55:43.745Z,1014.82
2022-10-13T07:56:45.358Z,1014.76
2022-10-13T07:57:45.253Z,1014.74
2022-10-13T07:58:46.456Z,1014.78
2022-10-13T07:59:44.892Z,1014.78
2022-10-13T08:00:45.129Z,1014.75
2022-10-13T08:01:47.328Z,1014.77
2022-10-13T08:02:45.737Z,1014.75
2022-10-13T08:03:49.876Z,1014.72
2022-10-13T08:04:48.096Z,1014.69
2022-10-13T08:05:46.518Z,1014.70
2022-10-13T08:06:48.762Z,1014.73
2022-10-13T08:07:47.172Z,1014.73
2022-10-13T08:08:47.506Z,1014.71
2022-10-13T08:09:47.848Z,1014.70
2022-10-13T08:10:48.226Z,1014.68
2022-10-13T08:11:51.359Z,1014.69
2022-10-13T08:12:48.882Z,1014.70
2022-10-13T08:13:49.099Z,1014.73
2022-10-13T08:15:51.656Z,1014.71
2022-10-13T08:16:53.843Z,1014.73
2022-10-13T08:17:50.347Z,1014.71
2022-10-13T08:18:50.697Z,1014.73
2022-10-13T08:19:51.022Z,1014.69
2022-10-13T08:20:51.382Z,1014.66
2022-10-13T08:21:59.939Z,1014.62
2022-10-13T08:22:52.940Z,1014.61
2022-10-13T08:23:52.294Z,1014.63
2022-10-13T08:24:52.520Z,1014.61
2022-10-13T08:25:52.858Z,1014.62
2022-10-13T08:26:56.586Z,1014.61
2022-10-13T08:27:56.880Z,1014.61
2022-10-13T08:29:20.890Z,1014.61
2022-10-13T08:29:55.067Z,1014.62
2022-10-13T08:30:54.424Z,1014.63
2022-10-13T08:31:55.560Z,1014.61
2022-10-13T08:32:56.946Z,1014.59
2022-10-13T08:33:57.104Z,1014.55
2022-10-13T08:34:55.745Z,1014.53
2022-10-13T08:35:55.824Z,1014.55
2022-10-13T08:36:57.137Z,1014.59
2022-10-13T08:37:56.403Z,1014.60
2022-10-13T08:38:56.756Z,1014.54
2022-10-13T08:39:58.920Z,1014.51
2022-10-13T08:40:57.344Z,1014.54
2022-10-13T08:41:57.725Z,1014.52
2022-10-13T08:43:00.332Z,1014.48
2022-10-13T08:44:39.565Z,1014.47
2022-10-13T08:45:28.747Z,1014.51
2022-10-13T08:46:00.045Z,1014.51
2022-10-13T08:47:00.007Z,1014.52
2022-10-13T08:47:59.301Z,1014.48
2022-10-13T08:48:59.663Z,1014.52
2022-10-13T08:50:01.853Z,1014.51
2022-10-13T08:51:00.118Z,1014.47
2022-10-13T08:52:03.276Z,1014.44
2022-10-13T08:53:00.701Z,1014.46
2022-10-13T08:54:00.944Z,1014.46
2022-10-13T08:55:03.148Z,1014.51
2022-10-13T08:56:01.434Z,1014.50
2022-10-13T08:57:04.679Z,1014.48
2022-10-13T08:58:02.160Z,1014.47
2022-10-13T08:59:02.397Z,1014.46
2022-10-13T09:00:05.527Z,1014.43
2022-10-13T09:01:04.764Z,1014.42
2022-10-13T09:02:05.738Z,1014.44
2022-10-13T09:03:03.726Z,1014.44
2022-10-13T09:04:07.138Z,1014.42
2022-10-13T09:05:04.085Z,1014.42
2022-10-13T09:06:04.311Z,1014.40
2022-10-13T09:07:05.508Z,1014.39
2022-10-13T09:08:05.477Z,1014.43
2022-10-13T09:09:07.017Z,1014.35
2022-10-13T09:10:05.429Z,1014.34
2022-10-13T09:11:07.614Z,1014.39
2022-10-13T09:12:06.827Z,1014.40
2022-10-13T09:13:06.238Z,1014.43
2022-10-13T09:14:07.413Z,1014.38
2022-10-13T09:15:08.664Z,1014.42
2022-10-13T09:16:08.846Z,1014.43
2022-10-13T09:17:10.042Z,1014.38
2022-10-13T09:18:09.266Z,1014.42
2022-10-13T09:19:08.037Z,1014.41
2022-10-13T09:20:08.378Z,1014.45
2022-10-13T09:21:10.563Z,1014.39
2022-10-13T09:22:09.060Z,1014.41
2022-10-13T09:23:12.151Z,1014.38
2022-10-13T09:24:10.570Z,1014.38
2022-10-13T09:25:11.764Z,1014.42
2022-10-13T09:26:10.166Z,1014.40
2022-10-13T09:27:11.557Z,1014.43
2022-10-13T09:28:11.876Z,1014.33
2022-10-13T09:29:12.077Z,1014.36
2022-10-13T09:30:13.350Z,1014.40
2022-10-13T09:31:13.900Z,1014.35
2022-10-13T09:32:12.921Z,1014.35
2022-10-13T09:33:15.045Z,1014.32
2022-10-13T09:34:12.469Z,1014.35
2022-10-13T09:35:12.822Z,1014.33
2022-10-13T09:36:15.452Z,1014.34
2022-10-13T09:37:13.556Z,1014.33
2022-10-13T09:38:13.750Z,1014.30
2022-10-13T09:39:14.090Z,1014.29
2022-10-13T09:40:14.457Z,1014.31
2022-10-13T09:41:16.620Z,1014.32
2022-10-13T09:42:17.837Z,1014.39
2022-10-13T09:43:15.261Z,1014.36
2022-10-13T09:44:15.598Z,1014.38
2022-10-13T09:45:15.843Z,1014.40
2022-10-13T09:46:18.013Z,1014.39
2022-10-13T09:47:18.226Z,1014.41
2022-10-13T09:48:18.411Z,1014.40
2022-10-13T09:49:16.935Z,1014.43
2022-10-13T09:50:17.257Z,1014.39
2022-10-13T09:51:17.589Z,1014.36
2022-10-13T09:52:20.128Z,1014.42
2022-10-13T09:53:18.165Z,1014.38
2022-10-13T09:54:18.490Z,1014.39
2022-10-13T09:55:18.822Z,1014.33
2022-10-13T09:56:19.160Z,1014.36
2022-10-13T09:57:21.380Z,1014.33
2022-10-13T09:58:19.794Z,1014.33
2022-10-13T09:59:20.028Z,1014.30
2022-10-13T10:00:20.248Z,1014.36
2022-10-13T10:01:21.546Z,1014.31
2022-10-13T10:02:26.538Z,1014.30
2022-10-13T10:03:22.026Z,1014.28
2022-10-13T10:04:21.474Z,1014.34
2022-10-13T10:05:21.651Z,1014.28
2022-10-13T10:06:24.105Z,1014.32
2022-10-13T10:07:24.330Z,1014.36
2022-10-13T10:08:33.325Z,1014.39
2022-10-13T10:09:23.971Z,1014.40
2022-10-13T10:10:23.306Z,1014.40
2022-10-13T10:11:24.503Z,1014.44
2022-10-13T10:12:28.008Z,1014.41
2022-10-13T10:13:25.965Z,1014.43
2022-10-13T10:14:24.367Z,1014.39
2022-10-13T10:15:24.712Z,1014.37
2022-10-13T10:16:26.894Z,1014.40
2022-10-13T10:17:26.186Z,1014.43
2022-10-13T10:18:25.580Z,1014.42
2022-10-13T10:19:25.940Z,1014.35
2022-10-13T10:20:28.100Z,1014.34
2022-10-13T10:21:28.285Z,1014.31
2022-10-13T10:22:27.492Z,1014.32
2022-10-13T10:23:28.908Z,1014.33
2022-10-13T10:24:28.093Z,1014.33
2022-10-13T10:25:27.692Z,1014.31
2022-10-13T10:26:32.454Z,1014.35
2022-10-13T10:27:31.570Z,1014.29
2022-10-13T10:28:28.418Z,1014.31
2022-10-13T10:29:28.719Z,1014.28
2022-10-13T10:30:30.899Z,1014.31
2022-10-13T10:31:30.216Z,1014.33
2022-10-13T10:32:31.630Z,1014.31
2022-10-13T10:33:30.788Z,1014.25
2022-10-13T10:34:30.183Z,1014.21
2022-10-13T10:35:31.371Z,1014.20
2022-10-13T10:36:32.710Z,1014.21
2022-10-13T10:37:31.969Z,1014.18
2022-10-13T10:38:31.241Z,1014.20
2022-10-13T10:39:31.498Z,1014.20
2022-10-13T10:40:31.727Z,1014.21
2022-10-13T10:41:33.947Z,1014.20
2022-10-13T10:42:33.252Z,1014.19
2022-10-13T10:43:32.540Z,1014.17
2022-10-13T10:44:32.796Z,1014.14
2022-10-13T10:45:33.001Z,1014.14
2022-10-13T10:46:35.199Z,1014.16
2022-10-13T10:47:36.871Z,1014.14
2022-10-13T10:48:33.809Z,1014.16
2022-10-13T10:49:36.062Z,1014.16
2022-10-13T10:50:34.482Z,1014.18
2022-10-13T10:51:35.821Z,1014.19
2022-10-13T10:52:37.982Z,1014.14
2022-10-13T10:53:36.293Z,1014.13
2022-10-13T10:54:37.640Z,1014.18
2022-10-13T10:55:35.941Z,1014.12
2022-10-13T10:56:38.103Z,1014.16
2022-10-13T10:57:37.447Z,1014.15
2022-10-13T10:58:36.851Z,1014.15
2022-10-13T10:59:40.499Z,1014.14
2022-10-13T11:00:37.443Z,1014.09
2022-10-13T11:01:37.738Z,1014.10
2022-10-13T11:02:40.805Z,1014.12
2022-10-13T11:03:38.304Z,1014.09
2022-10-13T11:04:38.531Z,1014.11
2022-10-13T11:05:38.764Z,1014.08
2022-10-13T11:06:40.960Z,1014.09
2022-10-13T11:07:42.086Z,1014.09
2022-10-13T11:08:39.557Z,1014.08
2022-10-13T11:09:40.643Z,1014.04
2022-10-13T11:10:41.991Z,1014.03
2022-10-13T11:11:40.284Z,1014.00
2022-10-13T11:12:40.674Z,1013.94
2022-10-13T11:13:41.798Z,1013.97
2022-10-13T11:14:41.221Z,1013.95
2022-10-13T11:15:43.400Z,1013.92
2022-10-13T11:16:43.574Z,1013.91
2022-10-13T11:17:42.947Z,1013.90
2022-10-13T11:18:42.230Z,1013.85
2022-10-13T11:19:44.403Z,1013.90
2022-10-13T11:20:42.702Z,1013.81
2022-10-13T11:21:42.933Z,1013.83
2022-10-13T11:22:43.426Z,1013.82
2022-10-13T11:23:43.484Z,1013.75
2022-10-13T11:24:45.669Z,1013.72
2022-10-13T11:25:44.083Z,1013.73
2022-10-13T11:26:46.278Z,1013.69
2022-10-13T11:27:44.705Z,1013.70
2022-10-13T11:28:44.962Z,1013.77
2022-10-13T11:29:47.119Z,1013.75
2022-10-13T11:30:48.517Z,1013.77
2022-10-13T11:31:47.626Z,1013.70
2022-10-13T11:32:46.047Z,1013.72
2022-10-13T11:33:46.276Z,1013.72
2022-10-13T11:34:46.503Z,1013.67
2022-10-13T11:35:46.726Z,1013.65
2022-10-13T11:36:47.081Z,1013.60
2022-10-13T11:38:05.611Z,1013.62
2022-10-13T11:38:48.629Z,1013.57
2022-10-13T11:39:47.903Z,1013.54
2022-10-13T11:40:48.131Z,1013.57
2022-10-13T11:41:48.354Z,1013.55
2022-10-13T11:42:53.285Z,1013.63
2022-10-13T11:43:49.978Z,1013.57
2022-10-13T11:44:49.262Z,1013.55
2022-10-13T11:45:49.490Z,1013.59
2022-10-13T11:46:49.717Z,1013.57
2022-10-13T11:47:51.539Z,1013.53
2022-10-13T11:48:50.204Z,1013.52
2022-10-13T11:49:50.543Z,1013.55
2022-10-13T11:50:50.881Z,1013.61
2022-10-13T11:51:51.222Z,1013.65
2022-10-13T11:52:52.411Z,1013.57
2022-10-13T11:53:51.817Z,1013.64
2022-10-13T11:54:52.049Z,1013.61
2022-10-13T11:55:54.230Z,1013.63
2022-10-13T11:56:52.521Z,1013.60
2022-10-13T11:57:54.694Z,1013.62
2022-10-13T11:58:52.991Z,1013.55
2022-10-13T11:59:53.236Z,1013.58
2022-10-13T12:00:55.420Z,1013.52
2022-10-13T12:01:53.724Z,1013.55
2022-10-13T12:02:55.950Z,1013.54
2022-10-13T12:03:54.203Z,1013.56
2022-10-13T12:04:54.436Z,1013.61
2022-10-13T12:05:54.654Z,1013.54
2022-10-13T12:06:55.005Z,1013.53
2022-10-13T12:07:55.255Z,1013.52
2022-10-13T12:08:57.408Z,1013.46
2022-10-13T12:09:55.702Z,1013.46